sensor_id;sensor_type;location;lat;lon;timestamp;pressure;altitude;pressure_sealevel;temperature;humidity
10921;BME280;5513;50.580;8.818;2023-05-12T00:00:46;98917.84;;;12.92;100.00
10921;BME280;5513;50.580;8.818;2023-05-12T00:03:15;98921.34;;;12.81;100.00
10921;BME280;5513;50.580;8.818;2023-05-12T00:05:43;98927.72;;;12.67;100.00
10921;BME280;5513;50.580;8.818;2023-05-12T00:08:12;98928.69;;;12.66;100.00
10921;BME280;5513;50.580;8.818;2023-05-12T00:10:42;98928.13;;;12.85;100.00
10921;BME280;5513;50.580;8.818;2023-05-12T00:13:15;98918.81;;;12.90;100.00
10921;BME280;5513;50.580;8.818;2023-05-12T00:15:45;98924.13;;;12.79;100.00
10921;BME280;5513;50.580;8.818;2023-05-12T00:18:14;98913.63;;;12.78;100.00
10921;BME280;5513;50.580;8.818;2023-05-12T00:20:42;98915.88;;;12.71;100.00
10921;BME280;5513;50.580;8.818;2023-05-12T00:23:14;98917.09;;;12.67;100.00
10921;BME280;5513;50.580;8.818;2023-05-12T00:25:44;98925.19;;;12.66;100.00
10921;BME280;5513;50.580;8.818;2023-05-12T00:28:13;98921.19;;;12.71;100.00
10921;BME280;5513;50.580;8.818;2023-05-12T00:30:41;98921.31;;;12.70;100.00
10921;BME280;5513;50.580;8.818;2023-05-12T00:33:09;98917.09;;;12.67;100.00
10921;BME280;5513;50.580;8.818;2023-05-12T00:35:40;98918.53;;;12.71;100.00
10921;BME280;5513;50.580;8.818;2023-05-12T00:38:08;98910.56;;;12.71;100.00
10921;BME280;5513;50.580;8.818;2023-05-12T00:40:37;98917.78;;;12.58;100.00
10921;BME280;5513;50.580;8.818;2023-05-12T00:43:07;98912.81;;;12.53;100.00
10921;BME280;5513;50.580;8.818;2023-05-12T00:45:35;98910.06;;;12.55;100.00
10921;BME280;5513;50.580;8.818;2023-05-12T00:48:04;98913.06;;;12.50;100.00
10921;BME280;5513;50.580;8.818;2023-05-12T00:50:33;98910.53;;;12.49;100.00
10921;BME280;5513;50.580;8.818;2023-05-12T00:53:03;98911.47;;;12.37;100.00
10921;BME280;5513;50.580;8.818;2023-05-12T00:55:31;98907.88;;;12.49;100.00
10921;BME280;5513;50.580;8.818;2023-05-12T00:58:00;98909.41;;;12.40;100.00
10921;BME280;5513;50.580;8.818;2023-05-12T01:00:31;98910.13;;;12.42;100.00
10921;BME280;5513;50.580;8.818;2023-05-12T01:02:59;98910.66;;;12.47;100.00
10921;BME280;5513;50.580;8.818;2023-05-12T01:05:31;98921.72;;;12.41;100.00
10921;BME280;5513;50.580;8.818;2023-05-12T01:08:01;98911.50;;;12.48;100.00
10921;BME280;5513;50.580;8.818;2023-05-12T01:10:30;98912.78;;;12.42;100.00
10921;BME280;5513;50.580;8.818;2023-05-12T01:12:58;98912.41;;;12.36;100.00
10921;BME280;5513;50.580;8.818;2023-05-12T01:15:28;98920.13;;;12.27;100.00
10921;BME280;5513;50.580;8.818;2023-05-12T01:18:02;98916.16;;;12.44;100.00
10921;BME280;5513;50.580;8.818;2023-05-12T01:20:33;98920.75;;;12.42;100.00
10921;BME280;5513;50.580;8.818;2023-05-12T01:23:02;98917.75;;;12.36;100.00
10921;BME280;5513;50.580;8.818;2023-05-12T01:25:34;98920.75;;;12.42;100.00
10921;BME280;5513;50.580;8.818;2023-05-12T01:28:06;98918.59;;;12.36;100.00
10921;BME280;5513;50.580;8.818;2023-05-12T01:30:35;98919.00;;;12.19;100.00
10921;BME280;5513;50.580;8.818;2023-05-12T01:33:07;98919.84;;;12.19;100.00
10921;BME280;5513;50.580;8.818;2023-05-12T01:35:36;98919.91;;;12.07;100.00
10921;BME280;5513;50.580;8.818;2023-05-12T01:38:07;98924.78;;;12.24;100.00
10921;BME280;5513;50.580;8.818;2023-05-12T01:40:35;98925.63;;;12.24;100.00
10921;BME280;5513;50.580;8.818;2023-05-12T01:43:05;98929.50;;;12.20;100.00
10921;BME280;5513;50.580;8.818;2023-05-12T01:45:33;98933.41;;;12.27;100.00
10921;BME280;5513;50.580;8.818;2023-05-12T01:48:02;98931.69;;;12.26;100.00
10921;BME280;5513;50.580;8.818;2023-05-12T01:50:31;98926.59;;;12.23;100.00
10921;BME280;5513;50.580;8.818;2023-05-12T01:52:59;98930.47;;;12.19;100.00
10921;BME280;5513;50.580;8.818;2023-05-12T01:55:28;98934.19;;;12.17;100.00
10921;BME280;5513;50.580;8.818;2023-05-12T01:57:56;98940.66;;;12.13;100.00
10921;BME280;5513;50.580;8.818;2023-05-12T02:00:26;98941.16;;;12.07;100.00
10921;BME280;5513;50.580;8.818;2023-05-12T02:02:54;98948.94;;;12.21;100.00
10921;BME280;5513;50.580;8.818;2023-05-12T02:05:23;98941.41;;;12.39;100.00
10921;BME280;5513;50.580;8.818;2023-05-12T02:07:52;98948.31;;;12.17;100.00
10921;BME280;5513;50.580;8.818;2023-05-12T02:10:20;98939.44;;;12.29;100.00
10921;BME280;5513;50.580;8.818;2023-05-12T02:12:49;98943.34;;;12.37;100.00
10921;BME280;5513;50.580;8.818;2023-05-12T02:15:18;98936.81;;;12.41;100.00
10921;BME280;5513;50.580;8.818;2023-05-12T02:17:50;98949.25;;;12.40;100.00
10921;BME280;5513;50.580;8.818;2023-05-12T02:20:20;98946.47;;;12.42;100.00
10921;BME280;5513;50.580;8.818;2023-05-12T02:22:49;98954.47;;;12.18;100.00
10921;BME280;5513;50.580;8.818;2023-05-12T02:25:19;98962.72;;;12.26;100.00
10921;BME280;5513;50.580;8.818;2023-05-12T02:27:48;98951.88;;;12.29;100.00
10921;BME280;5513;50.580;8.818;2023-05-12T02:30:16;98958.81;;;12.19;100.00
10921;BME280;5513;50.580;8.818;2023-05-12T02:32:45;98964.00;;;12.20;100.00
10921;BME280;5513;50.580;8.818;2023-05-12T02:35:15;98962.56;;;12.16;100.00
10921;BME280;5513;50.580;8.818;2023-05-12T02:37:44;98965.63;;;12.34;100.00
10921;BME280;5513;50.580;8.818;2023-05-12T02:40:12;98969.38;;;12.31;100.00
10921;BME280;5513;50.580;8.818;2023-05-12T02:42:43;98963.81;;;12.35;100.00
10921;BME280;5513;50.580;8.818;2023-05-12T02:45:13;98966.38;;;12.36;100.00
10921;BME280;5513;50.580;8.818;2023-05-12T02:47:41;98967.31;;;12.35;100.00
10921;BME280;5513;50.580;8.818;2023-05-12T02:50:11;98968.09;;;12.37;100.00
10921;BME280;5513;50.580;8.818;2023-05-12T02:52:41;98974.19;;;12.26;100.00
10921;BME280;5513;50.580;8.818;2023-05-12T02:55:09;98975.34;;;12.22;100.00
10921;BME280;5513;50.580;8.818;2023-05-12T02:57:38;98975.53;;;12.32;100.00
10921;BME280;5513;50.580;8.818;2023-05-12T03:00:07;98968.81;;;12.39;100.00
10921;BME280;5513;50.580;8.818;2023-05-12T03:02:36;98981.75;;;12.20;100.00
10921;BME280;5513;50.580;8.818;2023-05-12T03:05:07;98980.06;;;12.19;100.00
10921;BME280;5513;50.580;8.818;2023-05-12T03:07:36;98975.19;;;12.13;100.00
10921;BME280;5513;50.580;8.818;2023-05-12T03:10:07;98986.03;;;12.10;100.00
10921;BME280;5513;50.580;8.818;2023-05-12T03:12:37;98984.06;;;12.24;100.00
10921;BME280;5513;50.580;8.818;2023-05-12T03:15:07;98992.66;;;12.28;100.00
10921;BME280;5513;50.580;8.818;2023-05-12T03:17:35;98992.94;;;12.36;100.00
10921;BME280;5513;50.580;8.818;2023-05-12T03:20:05;98992.09;;;12.36;100.00
10921;BME280;5513;50.580;8.818;2023-05-12T03:22:34;98990.63;;;12.31;100.00
10921;BME280;5513;50.580;8.818;2023-05-12T03:25:03;98993.63;;;12.27;100.00
10921;BME280;5513;50.580;8.818;2023-05-12T03:27:33;98988.47;;;12.13;100.00
10921;BME280;5513;50.580;8.818;2023-05-12T03:30:02;98994.72;;;12.12;100.00
10921;BME280;5513;50.580;8.818;2023-05-12T03:32:31;98998.28;;;12.23;100.00
10921;BME280;5513;50.580;8.818;2023-05-12T03:35:00;98999.31;;;12.10;100.00
10921;BME280;5513;50.580;8.818;2023-05-12T03:37:29;98995.16;;;12.18;100.00
10921;BME280;5513;50.580;8.818;2023-05-12T03:39:58;99011.75;;;12.09;100.00
10921;BME280;5513;50.580;8.818;2023-05-12T03:42:26;99012.72;;;12.32;100.00
10921;BME280;5513;50.580;8.818;2023-05-12T03:44:57;99013.06;;;12.27;100.00
10921;BME280;5513;50.580;8.818;2023-05-12T03:47:26;98998.19;;;12.25;100.00
10921;BME280;5513;50.580;8.818;2023-05-12T03:49:55;99014.84;;;12.03;100.00
10921;BME280;5513;50.580;8.818;2023-05-12T03:52:24;99016.50;;;12.17;100.00
10921;BME280;5513;50.580;8.818;2023-05-12T03:54:52;99011.34;;;12.02;100.00
10921;BME280;5513;50.580;8.818;2023-05-12T03:57:21;99013.00;;;12.16;100.00
10921;BME280;5513;50.580;8.818;2023-05-12T03:59:50;99012.41;;;12.00;100.00
10921;BME280;5513;50.580;8.818;2023-05-12T04:02:20;99013.19;;;12.26;100.00
10921;BME280;5513;50.580;8.818;2023-05-12T04:04:49;99013.56;;;12.09;100.00
10921;BME280;5513;50.580;8.818;2023-05-12T04:07:18;99019.06;;;12.06;100.00
10921;BME280;5513;50.580;8.818;2023-05-12T04:09:47;99027.16;;;12.04;100.00
10921;BME280;5513;50.580;8.818;2023-05-12T04:12:15;99019.81;;;12.08;100.00
10921;BME280;5513;50.580;8.818;2023-05-12T04:14:44;99026.75;;;11.97;100.00
10921;BME280;5513;50.580;8.818;2023-05-12T04:17:12;99025.34;;;12.04;100.00
10921;BME280;5513;50.580;8.818;2023-05-12T04:19:42;99030.06;;;11.88;100.00
10921;BME280;5513;50.580;8.818;2023-05-12T04:22:11;99036.22;;;11.89;100.00
10921;BME280;5513;50.580;8.818;2023-05-12T04:24:39;99041.50;;;12.01;100.00
10921;BME280;5513;50.580;8.818;2023-05-12T04:27:08;99046.38;;;11.95;100.00
10921;BME280;5513;50.580;8.818;2023-05-12T04:29:36;99042.88;;;11.94;100.00
10921;BME280;5513;50.580;8.818;2023-05-12T04:32:05;99047.75;;;12.00;100.00
10921;BME280;5513;50.580;8.818;2023-05-12T04:34:34;99050.53;;;11.99;100.00
10921;BME280;5513;50.580;8.818;2023-05-12T04:37:07;99044.50;;;11.97;100.00
10921;BME280;5513;50.580;8.818;2023-05-12T04:39:35;99051.69;;;12.08;100.00
10921;BME280;5513;50.580;8.818;2023-05-12T04:42:04;99056.56;;;12.01;100.00
10921;BME280;5513;50.580;8.818;2023-05-12T04:44:33;99055.81;;;12.12;100.00
10921;BME280;5513;50.580;8.818;2023-05-12T04:47:01;99058.34;;;12.13;100.00
10921;BME280;5513;50.580;8.818;2023-05-12T04:49:30;99069.06;;;12.12;100.00
10921;BME280;5513;50.580;8.818;2023-05-12T04:51:59;99063.25;;;12.07;100.00
10921;BME280;5513;50.580;8.818;2023-05-12T04:54:29;99071.19;;;12.19;100.00
10921;BME280;5513;50.580;8.818;2023-05-12T04:56:58;99067.16;;;12.14;100.00
10921;BME280;5513;50.580;8.818;2023-05-12T04:59:29;99072.16;;;12.18;100.00
10921;BME280;5513;50.580;8.818;2023-05-12T05:01:57;99070.00;;;12.23;100.00
10921;BME280;5513;50.580;8.818;2023-05-12T05:04:26;99076.69;;;12.29;100.00
10921;BME280;5513;50.580;8.818;2023-05-12T05:06:55;99077.88;;;12.12;100.00
10921;BME280;5513;50.580;8.818;2023-05-12T05:09:23;99082.31;;;12.24;100.00
10921;BME280;5513;50.580;8.818;2023-05-12T05:11:55;99077.19;;;12.34;100.00
10921;BME280;5513;50.580;8.818;2023-05-12T05:14:23;99081.88;;;12.30;100.00
10921;BME280;5513;50.580;8.818;2023-05-12T05:16:52;99080.78;;;12.33;100.00
10921;BME280;5513;50.580;8.818;2023-05-12T05:19:20;99083.91;;;12.27;100.00
10921;BME280;5513;50.580;8.818;2023-05-12T05:22:09;99075.94;;;12.27;100.00
10921;BME280;5513;50.580;8.818;2023-05-12T05:24:38;99085.16;;;12.34;100.00
10921;BME280;5513;50.580;8.818;2023-05-12T05:27:08;99085.97;;;12.47;100.00
10921;BME280;5513;50.580;8.818;2023-05-12T05:29:36;99090.81;;;12.53;100.00
10921;BME280;5513;50.580;8.818;2023-05-12T05:32:05;99093.72;;;12.50;100.00
10921;BME280;5513;50.580;8.818;2023-05-12T05:34:34;99098.78;;;12.53;100.00
10921;BME280;5513;50.580;8.818;2023-05-12T05:37:03;99093.59;;;12.52;100.00
10921;BME280;5513;50.580;8.818;2023-05-12T05:39:32;99099.38;;;12.46;100.00
10921;BME280;5513;50.580;8.818;2023-05-12T05:42:00;99103.59;;;12.48;100.00
10921;BME280;5513;50.580;8.818;2023-05-12T05:44:31;99101.38;;;12.55;100.00
10921;BME280;5513;50.580;8.818;2023-05-12T05:46:59;99098.34;;;12.59;100.00
10921;BME280;5513;50.580;8.818;2023-05-12T05:49:28;99101.31;;;12.68;100.00
10921;BME280;5513;50.580;8.818;2023-05-12T05:51:59;99099.13;;;12.73;100.00
10921;BME280;5513;50.580;8.818;2023-05-12T05:54:27;99105.94;;;12.77;100.00
10921;BME280;5513;50.580;8.818;2023-05-12T05:56:56;99106.94;;;12.87;100.00
10921;BME280;5513;50.580;8.818;2023-05-12T05:59:26;99102.63;;;12.73;100.00
10921;BME280;5513;50.580;8.818;2023-05-12T06:01:56;99107.81;;;12.87;100.00
10921;BME280;5513;50.580;8.818;2023-05-12T06:04:25;99109.84;;;12.84;100.00
10921;BME280;5513;50.580;8.818;2023-05-12T06:06:54;99113.34;;;12.84;100.00
10921;BME280;5513;50.580;8.818;2023-05-12T06:09:22;99109.94;;;12.82;100.00
10921;BME280;5513;50.580;8.818;2023-05-12T06:11:51;99111.78;;;12.93;100.00
10921;BME280;5513;50.580;8.818;2023-05-12T06:14:19;99108.09;;;12.96;100.00
10921;BME280;5513;50.580;8.818;2023-05-12T06:16:47;99116.19;;;12.94;100.00
10921;BME280;5513;50.580;8.818;2023-05-12T06:19:17;99123.06;;;12.97;100.00
10921;BME280;5513;50.580;8.818;2023-05-12T06:21:46;99122.72;;;12.77;100.00
10921;BME280;5513;50.580;8.818;2023-05-12T06:24:15;99132.13;;;12.94;100.00
10921;BME280;5513;50.580;8.818;2023-05-12T06:26:43;99134.63;;;12.84;100.00
10921;BME280;5513;50.580;8.818;2023-05-12T06:29:11;99129.28;;;13.08;100.00
10921;BME280;5513;50.580;8.818;2023-05-12T06:31:40;99122.34;;;12.95;100.00
10921;BME280;5513;50.580;8.818;2023-05-12T06:34:09;99129.44;;;13.18;100.00
10921;BME280;5513;50.580;8.818;2023-05-12T06:36:40;99125.03;;;13.30;100.00
10921;BME280;5513;50.580;8.818;2023-05-12T06:39:09;99124.88;;;13.20;100.00
10921;BME280;5513;50.580;8.818;2023-05-12T06:41:37;99124.53;;;13.25;100.00
10921;BME280;5513;50.580;8.818;2023-05-12T06:44:05;99119.44;;;13.22;100.00
10921;BME280;5513;50.580;8.818;2023-05-12T06:46:38;99117.03;;;13.30;100.00
10921;BME280;5513;50.580;8.818;2023-05-12T06:49:07;99119.75;;;13.17;100.00
10921;BME280;5513;50.580;8.818;2023-05-12T06:51:35;99122.72;;;13.25;100.00
10921;BME280;5513;50.580;8.818;2023-05-12T06:54:05;99116.94;;;13.31;100.00
10921;BME280;5513;50.580;8.818;2023-05-12T06:56:34;99129.28;;;13.32;100.00
10921;BME280;5513;50.580;8.818;2023-05-12T06:59:02;99129.44;;;13.42;100.00
10921;BME280;5513;50.580;8.818;2023-05-12T07:01:31;99130.88;;;13.46;100.00
10921;BME280;5513;50.580;8.818;2023-05-12T07:03:59;99137.56;;;13.52;100.00
10921;BME280;5513;50.580;8.818;2023-05-12T07:06:29;99132.47;;;13.49;100.00
10921;BME280;5513;50.580;8.818;2023-05-12T07:08:58;99141.00;;;13.76;100.00
10921;BME280;5513;50.580;8.818;2023-05-12T07:11:30;99140.72;;;13.68;100.00
10921;BME280;5513;50.580;8.818;2023-05-12T07:13:59;99140.38;;;13.72;100.00
10921;BME280;5513;50.580;8.818;2023-05-12T07:16:27;99138.31;;;13.76;100.00
10921;BME280;5513;50.580;8.818;2023-05-12T07:18:55;99135.19;;;13.82;100.00
10921;BME280;5513;50.580;8.818;2023-05-12T07:21:24;99135.19;;;13.71;100.00
10921;BME280;5513;50.580;8.818;2023-05-12T07:23:54;99132.03;;;13.88;100.00
10921;BME280;5513;50.580;8.818;2023-05-12T07:26:23;99126.84;;;13.98;100.00
10921;BME280;5513;50.580;8.818;2023-05-12T07:28:54;99128.44;;;14.23;100.00
10921;BME280;5513;50.580;8.818;2023-05-12T07:31:23;99126.59;;;14.35;100.00
10921;BME280;5513;50.580;8.818;2023-05-12T07:33:51;99120.56;;;14.32;100.00
10921;BME280;5513;50.580;8.818;2023-05-12T07:36:20;99123.44;;;14.18;100.00
10921;BME280;5513;50.580;8.818;2023-05-12T07:38:48;99121.66;;;14.52;100.00
10921;BME280;5513;50.580;8.818;2023-05-12T07:41:16;99119.09;;;14.51;100.00
10921;BME280;5513;50.580;8.818;2023-05-12T07:43:45;99109.28;;;14.18;100.00
10921;BME280;5513;50.580;8.818;2023-05-12T07:46:15;99105.06;;;14.15;100.00
10921;BME280;5513;50.580;8.818;2023-05-12T07:48:44;99105.53;;;14.31;100.00
10921;BME280;5513;50.580;8.818;2023-05-12T07:51:12;99104.66;;;14.42;100.00
10921;BME280;5513;50.580;8.818;2023-05-12T07:53:41;99104.78;;;14.41;100.00
10921;BME280;5513;50.580;8.818;2023-05-12T07:56:09;99103.81;;;14.42;100.00
10921;BME280;5513;50.580;8.818;2023-05-12T07:58:37;99109.28;;;14.51;100.00
10921;BME280;5513;50.580;8.818;2023-05-12T08:01:06;99105.28;;;14.35;100.00
10921;BME280;5513;50.580;8.818;2023-05-12T08:03:37;99103.69;;;14.43;100.00
10921;BME280;5513;50.580;8.818;2023-05-12T08:06:07;99101.50;;;14.37;100.00
10921;BME280;5513;50.580;8.818;2023-05-12T08:08:35;99105.53;;;14.31;100.00
10921;BME280;5513;50.580;8.818;2023-05-12T08:11:04;99114.13;;;14.35;100.00
10921;BME280;5513;50.580;8.818;2023-05-12T08:13:32;99108.56;;;14.49;100.00
10921;BME280;5513;50.580;8.818;2023-05-12T08:16:00;99111.44;;;14.69;100.00
10921;BME280;5513;50.580;8.818;2023-05-12T08:18:29;99104.28;;;14.69;100.00
10921;BME280;5513;50.580;8.818;2023-05-12T08:20:59;99105.00;;;14.71;100.00
10921;BME280;5513;50.580;8.818;2023-05-12T08:23:28;99103.56;;;14.99;100.00
10921;BME280;5513;50.580;8.818;2023-05-12T08:25:56;99104.59;;;14.76;100.00
10921;BME280;5513;50.580;8.818;2023-05-12T08:28:25;99104.97;;;14.82;100.00
10921;BME280;5513;50.580;8.818;2023-05-12T08:30:53;99102.66;;;14.89;100.00
10921;BME280;5513;50.580;8.818;2023-05-12T08:33:21;99104.16;;;15.03;100.00
10921;BME280;5513;50.580;8.818;2023-05-12T08:35:51;99098.06;;;15.12;100.00
10921;BME280;5513;50.580;8.818;2023-05-12T08:38:21;99101.97;;;15.08;100.00
10921;BME280;5513;50.580;8.818;2023-05-12T08:40:57;99097.22;;;15.11;100.00
10921;BME280;5513;50.580;8.818;2023-05-12T08:43:36;99101.78;;;15.21;100.00
10921;BME280;5513;50.580;8.818;2023-05-12T08:46:06;99102.34;;;15.24;100.00
10921;BME280;5513;50.580;8.818;2023-05-12T08:48:37;99100.59;;;15.34;100.00
10921;BME280;5513;50.580;8.818;2023-05-12T08:51:08;99103.41;;;15.54;100.00
10921;BME280;5513;50.580;8.818;2023-05-12T08:53:40;99104.44;;;15.41;100.00
10921;BME280;5513;50.580;8.818;2023-05-12T08:56:09;99112.16;;;15.35;100.00
10921;BME280;5513;50.580;8.818;2023-05-12T08:58:43;99103.34;;;15.23;100.00
10921;BME280;5513;50.580;8.818;2023-05-12T09:01:15;99111.75;;;15.39;100.00
10921;BME280;5513;50.580;8.818;2023-05-12T09:03:46;99110.19;;;15.37;100.00
10921;BME280;5513;50.580;8.818;2023-05-12T09:06:14;99103.47;;;15.42;100.00
10921;BME280;5513;50.580;8.818;2023-05-12T09:08:45;99111.47;;;15.42;100.00
10921;BME280;5513;50.580;8.818;2023-05-12T09:11:15;99106.75;;;15.67;100.00
10921;BME280;5513;50.580;8.818;2023-05-12T09:13:49;99104.91;;;15.46;100.00
10921;BME280;5513;50.580;8.818;2023-05-12T09:16:22;99109.50;;;15.24;100.00
10921;BME280;5513;50.580;8.818;2023-05-12T09:18:54;99109.84;;;15.09;100.00
10921;BME280;5513;50.580;8.818;2023-05-12T09:21:23;99102.69;;;15.31;100.00
10921;BME280;5513;50.580;8.818;2023-05-12T09:23:54;99097.16;;;15.23;100.00
10921;BME280;5513;50.580;8.818;2023-05-12T09:26:24;99103.38;;;15.12;100.00
10921;BME280;5513;50.580;8.818;2023-05-12T09:28:54;99104.38;;;15.32;100.00
10921;BME280;5513;50.580;8.818;2023-05-12T09:31:23;99095.31;;;15.44;100.00
10921;BME280;5513;50.580;8.818;2023-05-12T09:33:53;99100.50;;;15.57;100.00
10921;BME280;5513;50.580;8.818;2023-05-12T09:36:23;99100.34;;;15.79;100.00
10921;BME280;5513;50.580;8.818;2023-05-12T09:39:00;99108.44;;;15.68;100.00
10921;BME280;5513;50.580;8.818;2023-05-12T09:41:30;99104.28;;;15.75;100.00
10921;BME280;5513;50.580;8.818;2023-05-12T09:43:59;99114.31;;;15.83;100.00
10921;BME280;5513;50.580;8.818;2023-05-12T09:46:27;99104.59;;;15.82;100.00
10921;BME280;5513;50.580;8.818;2023-05-12T09:48:56;99095.44;;;15.74;100.00
10921;BME280;5513;50.580;8.818;2023-05-12T09:51:26;99092.91;;;16.03;100.00
10921;BME280;5513;50.580;8.818;2023-05-12T09:53:55;99096.00;;;16.09;100.00
10921;BME280;5513;50.580;8.818;2023-05-12T09:56:26;99088.88;;;16.28;100.00
10921;BME280;5513;50.580;8.818;2023-05-12T09:58:56;99086.03;;;16.20;100.00
10921;BME280;5513;50.580;8.818;2023-05-12T10:01:28;99085.41;;;16.47;100.00
10921;BME280;5513;50.580;8.818;2023-05-12T10:03:58;99078.16;;;16.69;100.00
10921;BME280;5513;50.580;8.818;2023-05-12T10:06:26;99085.41;;;16.47;100.00
10921;BME280;5513;50.580;8.818;2023-05-12T10:09:02;99082.91;;;16.55;100.00
10921;BME280;5513;50.580;8.818;2023-05-12T10:11:33;99079.56;;;16.63;100.00
10921;BME280;5513;50.580;8.818;2023-05-12T10:14:02;99076.19;;;16.61;100.00
10921;BME280;5513;50.580;8.818;2023-05-12T10:16:31;99071.53;;;16.63;100.00
10921;BME280;5513;50.580;8.818;2023-05-12T10:19:04;99071.00;;;16.79;100.00
10921;BME280;5513;50.580;8.818;2023-05-12T10:21:33;99066.53;;;16.89;100.00
10921;BME280;5513;50.580;8.818;2023-05-12T10:24:04;99067.91;;;17.22;100.00
10921;BME280;5513;50.580;8.818;2023-05-12T10:26:36;99070.72;;;17.30;100.00
10921;BME280;5513;50.580;8.818;2023-05-12T10:29:05;99075.25;;;17.20;100.00
10921;BME280;5513;50.580;8.818;2023-05-12T10:31:35;99065.38;;;17.21;100.00
10921;BME280;5513;50.580;8.818;2023-05-12T10:34:04;99064.78;;;17.27;100.00
10921;BME280;5513;50.580;8.818;2023-05-12T10:36:44;99075.22;;;17.30;100.00
10921;BME280;5513;50.580;8.818;2023-05-12T10:39:13;99066.63;;;17.07;100.00
10921;BME280;5513;50.580;8.818;2023-05-12T10:41:44;99071.16;;;16.97;100.00
10921;BME280;5513;50.580;8.818;2023-05-12T10:44:12;99067.50;;;16.98;100.00
10921;BME280;5513;50.580;8.818;2023-05-12T10:46:40;99060.88;;;17.21;100.00
10921;BME280;5513;50.580;8.818;2023-05-12T10:49:10;99063.53;;;17.31;100.00
10921;BME280;5513;50.580;8.818;2023-05-12T10:51:47;99064.34;;;17.51;100.00
10921;BME280;5513;50.580;8.818;2023-05-12T10:54:20;99056.31;;;17.41;100.00
10921;BME280;5513;50.580;8.818;2023-05-12T10:56:57;99059.56;;;17.44;100.00
10921;BME280;5513;50.580;8.818;2023-05-12T10:59:25;99067.63;;;17.25;100.00
10921;BME280;5513;50.580;8.818;2023-05-12T11:01:57;99063.41;;;17.13;100.00
10921;BME280;5513;50.580;8.818;2023-05-12T11:04:39;99064.34;;;17.51;100.00
10921;BME280;5513;50.580;8.818;2023-05-12T11:07:09;99058.84;;;17.42;100.00
10921;BME280;5513;50.580;8.818;2023-05-12T11:09:41;99061.91;;;17.67;100.00
10921;BME280;5513;50.580;8.818;2023-05-12T11:12:26;99066.31;;;17.58;100.00
10921;BME280;5513;50.580;8.818;2023-05-12T11:14:58;99068.00;;;17.50;100.00
10921;BME280;5513;50.580;8.818;2023-05-12T11:17:27;99065.31;;;17.59;100.00
10921;BME280;5513;50.580;8.818;2023-05-12T11:19:56;99066.31;;;17.58;100.00
10921;BME280;5513;50.580;8.818;2023-05-12T11:22:24;99068.38;;;17.64;100.00
10921;BME280;5513;50.580;8.818;2023-05-12T11:24:52;99064.44;;;17.78;100.00
10921;BME280;5513;50.580;8.818;2023-05-12T11:27:21;99075.56;;;17.83;100.00
10921;BME280;5513;50.580;8.818;2023-05-12T11:29:57;99078.50;;;17.90;100.00
10921;BME280;5513;50.580;8.818;2023-05-12T11:32:25;99071.00;;;17.93;100.00
10921;BME280;5513;50.580;8.818;2023-05-12T11:35:07;99082.94;;;18.09;100.00
10921;BME280;5513;50.580;8.818;2023-05-12T11:37:36;99082.38;;;18.33;100.00
10921;BME280;5513;50.580;8.818;2023-05-12T11:40:12;99077.31;;;18.57;100.00
10921;BME280;5513;50.580;8.818;2023-05-12T11:42:41;99075.59;;;18.66;100.00
10921;BME280;5513;50.580;8.818;2023-05-12T11:45:21;99076.22;;;18.77;100.00
10921;BME280;5513;50.580;8.818;2023-05-12T11:47:50;99068.50;;;18.74;100.00
10921;BME280;5513;50.580;8.818;2023-05-12T11:50:20;99072.69;;;18.77;100.00
10921;BME280;5513;50.580;8.818;2023-05-12T11:52:49;99074.47;;;19.04;100.00
10921;BME280;5513;50.580;8.818;2023-05-12T11:55:22;99070.47;;;18.90;100.00
10921;BME280;5513;50.580;8.818;2023-05-12T11:57:55;99065.09;;;18.90;100.00
10921;BME280;5513;50.580;8.818;2023-05-12T12:00:31;99064.94;;;19.09;100.00
10921;BME280;5513;50.580;8.818;2023-05-12T12:03:14;99065.78;;;19.10;100.00
10921;BME280;5513;50.580;8.818;2023-05-12T12:05:44;99068.34;;;19.37;100.00
10921;BME280;5513;50.580;8.818;2023-05-12T12:08:26;99072.94;;;19.45;100.00
10921;BME280;5513;50.580;8.818;2023-05-12T12:10:55;99068.19;;;19.39;100.00
10921;BME280;5513;50.580;8.818;2023-05-12T12:13:27;99064.66;;;19.38;100.00
10921;BME280;5513;50.580;8.818;2023-05-12T12:15:58;99070.78;;;19.23;100.00
10921;BME280;5513;50.580;8.818;2023-05-12T12:18:27;99070.44;;;19.43;100.00
10921;BME280;5513;50.580;8.818;2023-05-12T12:20:57;99069.09;;;19.48;100.00
10921;BME280;5513;50.580;8.818;2023-05-12T12:23:25;99069.03;;;19.39;100.00
10921;BME280;5513;50.580;8.818;2023-05-12T12:26:09;99075.66;;;19.27;100.00
10921;BME280;5513;50.580;8.818;2023-05-12T12:28:37;99067.53;;;19.19;100.00
10921;BME280;5513;50.580;8.818;2023-05-12T12:31:08;99079.19;;;19.28;100.00
10921;BME280;5513;50.580;8.818;2023-05-12T12:33:37;99073.22;;;19.34;100.00
10921;BME280;5513;50.580;8.818;2023-05-12T12:36:06;99075.97;;;19.42;100.00
10921;BME280;5513;50.580;8.818;2023-05-12T12:38:37;99066.41;;;19.22;100.00
10921;BME280;5513;50.580;8.818;2023-05-12T12:41:06;99067.84;;;19.16;100.00
10921;BME280;5513;50.580;8.818;2023-05-12T12:43:34;99061.13;;;19.38;100.00
10921;BME280;5513;50.580;8.818;2023-05-12T12:46:03;99063.56;;;19.49;100.00
10921;BME280;5513;50.580;8.818;2023-05-12T12:48:33;99068.53;;;19.80;100.00
10921;BME280;5513;50.580;8.818;2023-05-12T12:51:02;99071.81;;;19.99;100.00
10921;BME280;5513;50.580;8.818;2023-05-12T12:53:31;99059.09;;;20.52;100.00
10921;BME280;5513;50.580;8.818;2023-05-12T12:56:00;99053.34;;;20.05;100.00
10921;BME280;5513;50.580;8.818;2023-05-12T12:58:28;99054.59;;;20.26;100.00
10921;BME280;5513;50.580;8.818;2023-05-12T13:00:56;99059.94;;;20.10;100.00
10921;BME280;5513;50.580;8.818;2023-05-12T13:03:25;99061.25;;;20.06;100.00
10921;BME280;5513;50.580;8.818;2023-05-12T13:05:57;99054.25;;;19.79;100.00
10921;BME280;5513;50.580;8.818;2023-05-12T13:08:26;99064.78;;;20.07;100.00
10921;BME280;5513;50.580;8.818;2023-05-12T13:10:55;99057.16;;;19.94;100.00
10921;BME280;5513;50.580;8.818;2023-05-12T13:13:26;99051.50;;;20.05;100.00